createdAt,value
2022-09-28T00:03:08.821Z,98.60
2022-09-28T00:08:08.746Z,98.39
2022-09-28T00:13:08.721Z,98.60
2022-09-28T00:18:08.699Z,98.54
2022-09-28T00:23:08.659Z,98.75
2022-09-28T00:28:08.407Z,98.65
2022-09-28T00:33:08.360Z,98.70
2022-09-28T00:38:08.292Z,98.44
2022-09-28T00:43:08.245Z,98.54
2022-09-28T00:48:08.233Z,98.54
2022-09-28T00:53:11.723Z,98.85
2022-09-28T00:58:08.112Z,98.85
2022-09-28T01:03:08.065Z,98.65
2022-09-28T01:08:08.091Z,98.33
2022-09-28T01:13:13.970Z,98.33
2022-09-28T01:18:07.840Z,98.13
2022-09-28T01:23:07.793Z,98.24
2022-09-28T01:28:07.723Z,97.99
2022-09-28T01:33:07.681Z,98.13
2022-09-28T01:38:07.638Z,98.13
2022-09-28T01:43:07.668Z,98.24
2022-09-28T01:48:07.506Z,98.03
2022-09-28T01:53:07.547Z,98.03
2022-09-28T01:58:07.399Z,97.97
2022-09-28T02:03:07.356Z,98.24
2022-09-28T02:08:07.285Z,98.13
2022-09-28T02:13:07.249Z,98.13
2022-09-28T02:18:07.194Z,98.24
2022-09-28T02:23:07.154Z,98.03
2022-09-28T02:28:08.151Z,98.13
2022-09-28T02:33:07.087Z,98.18
2022-09-28T02:38:07.024Z,98.33
2022-09-28T02:43:06.959Z,98.24
2022-09-28T02:48:06.879Z,98.24
2022-09-28T02:53:06.822Z,98.13
2022-09-28T02:58:06.750Z,97.82
2022-09-28T03:03:06.692Z,97.92
2022-09-28T03:08:06.643Z,97.82
2022-09-28T03:13:06.600Z,97.77
2022-09-28T03:18:06.675Z,97.77
2022-09-28T03:23:23.939Z,97.92
2022-09-28T03:28:07.462Z,97.82
2022-09-28T03:33:06.408Z,97.62
2022-09-28T03:38:06.397Z,97.36
2022-09-28T03:43:06.240Z,97.56
2022-09-28T03:48:06.204Z,97.36
2022-09-28T03:53:06.136Z,97.36
2022-09-28T03:58:06.061Z,97.36
2022-09-28T04:03:06.012Z,97.45
2022-09-28T04:08:06.013Z,97.25
2022-09-28T04:13:09.347Z,97.56
2022-09-28T04:18:05.842Z,97.66
2022-09-28T04:23:05.817Z,97.66
2022-09-28T04:28:05.798Z,97.25
2022-09-28T04:33:05.697Z,97.52
2022-09-28T04:38:05.651Z,97.41
2022-09-28T04:43:05.565Z,97.31
2022-09-28T04:48:05.516Z,97.36
2022-09-28T04:53:05.490Z,97.45
2022-09-28T04:58:05.505Z,97.31
2022-09-28T05:03:05.353Z,97.25
2022-09-28T05:08:05.477Z,97.25
2022-09-28T05:13:05.337Z,97.31
2022-09-28T05:18:05.259Z,97.10
2022-09-28T05:23:05.155Z,97.31
2022-09-28T05:28:05.106Z,97.31
2022-09-28T05:33:05.020Z,97.45
2022-09-28T05:38:04.969Z,97.66
2022-09-28T05:43:05.004Z,97.52
2022-09-28T05:48:04.900Z,97.41
2022-09-28T05:53:04.842Z,97.41
2022-09-28T05:58:04.769Z,97.31
2022-09-28T06:03:08.723Z,97.27
2022-09-28T06:08:04.650Z,97.00
2022-09-28T06:13:04.560Z,96.85
2022-09-28T06:18:04.519Z,96.95
2022-09-28T06:23:04.435Z,97.06
2022-09-28T06:28:04.388Z,97.12
2022-09-28T06:33:04.322Z,96.85
2022-09-28T06:38:04.347Z,97.06
2022-09-28T06:43:04.338Z,96.85
2022-09-28T06:48:04.247Z,96.91
2022-09-28T06:53:05.145Z,97.02
2022-09-28T06:58:04.122Z,96.81
2022-09-28T07:03:04.088Z,96.70
2022-09-28T07:08:03.942Z,96.50
2022-09-28T07:13:03.899Z,96.50
2022-09-28T07:18:04.338Z,96.23
2022-09-28T07:23:15.476Z,96.70
2022-09-28T07:28:04.732Z,97.02
2022-09-28T07:33:04.690Z,97.22
2022-09-28T07:38:03.652Z,96.50
2022-09-28T07:43:03.601Z,97.02
2022-09-28T07:48:03.636Z,96.60
2022-09-28T07:53:03.480Z,97.02
2022-09-28T07:58:03.414Z,97.22
2022-09-28T08:03:03.359Z,97.02
2022-09-28T08:08:04.288Z,97.53
2022-09-28T08:13:03.306Z,97.38
2022-09-28T08:18:03.238Z,97.17
2022-09-28T08:23:03.113Z,97.02
2022-09-28T08:28:03.103Z,96.81
2022-09-28T08:33:03.023Z,96.91
2022-09-28T08:38:02.968Z,97.23
2022-09-28T08:43:02.894Z,96.62
2022-09-28T08:48:02.920Z,96.41
2022-09-28T08:53:02.839Z,95.59
2022-09-28T08:58:02.734Z,95.90
2022-09-28T09:03:02.845Z,95.75
2022-09-28T09:08:02.803Z,95.44
2022-09-28T09:13:02.733Z,95.44
2022-09-28T09:18:02.698Z,95.56
2022-09-28T09:23:02.477Z,94.59
2022-09-28T09:28:02.438Z,94.60
2022-09-28T09:33:02.368Z,92.87
2022-09-28T09:38:02.312Z,92.10
2022-09-28T09:43:02.237Z,93.13
2022-09-28T09:48:02.201Z,92.37
2022-09-28T09:53:02.193Z,91.19
2022-09-28T09:58:02.171Z,87.65
2022-09-28T10:03:02.032Z,91.25
2022-09-28T10:08:02.052Z,90.08
2022-09-28T10:13:01.931Z,89.00
2022-09-28T10:18:01.838Z,89.82
2022-09-28T10:23:01.895Z,89.45
2022-09-28T10:28:02.002Z,90.27
2022-09-28T10:33:01.849Z,91.05
2022-09-28T10:38:01.664Z,88.79
2022-09-28T10:43:01.672Z,88.24
2022-09-28T10:48:01.576Z,88.51
2022-09-28T10:53:01.554Z,89.71
2022-09-28T10:58:01.458Z,87.59
2022-09-28T11:03:01.450Z,84.31
2022-09-28T11:08:01.343Z,84.04
2022-09-28T11:13:01.465Z,85.41
2022-09-28T11:18:01.203Z,84.74
2022-09-28T11:23:01.287Z,88.57
2022-09-28T11:28:01.097Z,87.53
2022-09-28T11:33:01.256Z,83.80
2022-09-28T11:38:00.994Z,84.11
2022-09-28T11:43:01.078Z,85.98
2022-09-28T11:48:01.905Z,83.84
2022-09-28T11:53:00.841Z,85.94
2022-09-28T11:58:00.794Z,86.61
2022-09-28T12:03:00.870Z,83.04
2022-09-28T12:08:00.719Z,83.39
2022-09-28T12:13:00.796Z,85.69
2022-09-28T12:18:00.796Z,85.25
2022-09-28T12:23:00.683Z,85.96
2022-09-28T12:28:00.422Z,84.43
2022-09-28T12:33:00.411Z,85.25
2022-09-28T12:38:01.409Z,85.05
2022-09-28T12:43:00.303Z,86.63
2022-09-28T12:48:00.203Z,83.07
2022-09-28T12:53:02.992Z,84.25
2022-09-28T12:58:00.148Z,85.03
2022-09-28T13:03:01.170Z,83.29
2022-09-28T13:08:00.000Z,82.48
2022-09-28T13:13:00.062Z,81.12
2022-09-28T13:17:59.955Z,82.45
2022-09-28T13:22:59.894Z,79.70
2022-09-28T13:27:59.824Z,79.97
2022-09-28T13:32:59.780Z,80.78
2022-09-28T13:37:59.641Z,79.83
2022-09-28T13:42:59.599Z,80.98
2022-09-28T13:47:59.520Z,78.41
2022-09-28T13:52:59.519Z,76.78
2022-09-28T13:57:59.418Z,77.83
2022-09-28T14:02:59.416Z,78.11
2022-09-28T14:07:59.317Z,79.63
2022-09-28T14:12:59.289Z,82.68
2022-09-28T14:17:59.196Z,81.81
2022-09-28T14:22:59.122Z,80.93
2022-09-28T14:27:59.076Z,83.62
2022-09-28T14:32:59.098Z,84.27
2022-09-28T14:37:59.007Z,86.04
2022-09-28T14:42:58.958Z,86.04
2022-09-28T14:47:58.900Z,87.67
2022-09-28T14:52:58.788Z,87.77
2022-09-28T14:57:58.952Z,88.78
2022-09-28T15:02:58.835Z,88.26
2022-09-28T15:07:58.751Z,86.02
2022-09-28T15:12:58.668Z,85.65
2022-09-28T15:18:00.626Z,86.36
2022-09-28T15:22:58.555Z,86.88
2022-09-28T15:27:58.440Z,87.12
2022-09-28T15:32:59.042Z,87.06
2022-09-28T15:37:58.336Z,87.65
2022-09-28T15:42:59.358Z,89.23
2022-09-28T15:47:58.219Z,90.25
2022-09-28T15:52:58.145Z,90.41
2022-09-28T15:57:58.086Z,90.52
2022-09-28T16:02:58.047Z,90.25
2022-09-28T16:07:57.978Z,91.03
2022-09-28T16:12:57.919Z,91.85
2022-09-28T16:17:57.844Z,91.58
2022-09-28T16:22:57.797Z,91.83
2022-09-28T16:27:57.732Z,92.81
2022-09-28T16:32:57.666Z,93.22
2022-09-28T16:37:57.697Z,93.73
2022-09-28T16:42:57.657Z,93.93
2022-09-28T16:47:57.575Z,93.84
2022-09-28T16:53:00.091Z,94.08
2022-09-28T16:57:57.445Z,93.57
2022-09-28T17:02:57.390Z,93.82
2022-09-28T17:07:57.295Z,93.77
2022-09-28T17:12:57.245Z,93.71
2022-09-28T17:17:57.276Z,93.62
2022-09-28T17:22:57.223Z,93.92
2022-09-28T17:27:57.148Z,93.82
2022-09-28T17:32:57.079Z,93.82
2022-09-28T17:37:57.010Z,94.12
2022-09-28T17:42:57.019Z,94.02
2022-09-28T17:47:56.871Z,93.82
2022-09-28T17:52:56.839Z,93.76
2022-09-28T17:57:56.747Z,93.76
2022-09-28T18:02:56.766Z,94.07
2022-09-28T18:07:56.756Z,94.48
2022-09-28T18:12:56.670Z,94.68
2022-09-28T18:17:56.539Z,94.68
2022-09-28T18:22:56.525Z,94.78
2022-09-28T18:27:56.426Z,95.44
2022-09-28T18:32:56.372Z,94.87
2022-09-28T18:37:56.328Z,95.18
2022-09-28T18:42:56.277Z,94.77
2022-09-28T18:47:56.190Z,94.36
2022-09-28T18:52:56.143Z,94.30
2022-09-28T18:57:56.061Z,94.55
2022-09-28T19:02:56.104Z,94.96
2022-09-28T19:07:55.980Z,95.17
2022-09-28T19:12:55.965Z,95.42
2022-09-28T19:17:55.881Z,96.34
2022-09-28T19:22:55.929Z,96.44
2022-09-28T19:27:55.730Z,96.65
2022-09-28T19:32:55.693Z,96.75
2022-09-28T19:37:55.638Z,97.10
2022-09-28T19:42:55.601Z,97.20
2022-09-28T19:47:59.295Z,96.90
2022-09-28T19:52:55.531Z,96.94
2022-09-28T19:57:55.439Z,96.94
2022-09-28T20:02:55.510Z,97.45
2022-09-28T20:07:55.467Z,97.66
2022-09-28T20:12:55.267Z,97.50
2022-09-28T20:17:55.195Z,97.50
2022-09-28T20:22:55.132Z,97.65
2022-09-28T20:27:55.157Z,97.75
2022-09-28T20:32:55.072Z,97.75
2022-09-28T20:37:54.989Z,97.39
2022-09-28T20:42:54.932Z,97.28
2022-09-28T20:47:54.979Z,97.49
2022-09-28T20:52:54.910Z,97.80
2022-09-28T20:57:54.829Z,98.05
2022-09-28T21:02:54.811Z,98.15
2022-09-28T21:07:54.660Z,98.25
2022-09-28T21:12:54.587Z,98.36
2022-09-28T21:17:54.550Z,98.05
2022-09-28T21:22:54.494Z,98.10
2022-09-28T21:27:54.535Z,97.89
2022-09-28T21:32:54.473Z,97.89
2022-09-28T21:37:54.438Z,97.94
2022-09-28T21:42:54.266Z,98.03
2022-09-28T21:47:54.204Z,98.14
2022-09-28T21:52:54.164Z,98.35
2022-09-28T21:57:54.107Z,98.45
2022-09-28T22:02:54.072Z,98.45
2022-09-28T22:07:54.062Z,98.35
2022-09-28T22:12:55.031Z,98.39
2022-09-28T22:17:53.890Z,98.50
2022-09-28T22:22:53.807Z,98.60
2022-09-28T22:27:53.921Z,98.60
2022-09-28T22:33:02.727Z,98.39
2022-09-28T22:37:53.725Z,98.39
2022-09-28T22:42:53.658Z,98.44
2022-09-28T22:47:53.560Z,98.33
2022-09-28T22:52:53.498Z,98.33
2022-09-28T22:57:53.450Z,98.44
2022-09-28T23:02:53.620Z,98.65
2022-09-28T23:07:53.347Z,98.75
2022-09-28T23:12:53.275Z,98.65
2022-09-28T23:17:53.243Z,98.44
2022-09-28T23:22:53.187Z,98.38
2022-09-28T23:27:53.143Z,98.49
2022-09-28T23:32:53.147Z,98.69
2022-09-28T23:37:53.121Z,98.63
2022-09-28T23:42:53.063Z,98.53
2022-09-28T23:47:52.896Z,98.53
2022-09-28T23:52:53.265Z,98.63
2022-09-28T23:57:52.775Z,98.63
